createdAt,value
2023-04-26T00:06:59.130Z,85.46
2023-04-26T00:07:57.323Z,85.55
2023-04-26T00:08:57.997Z,85.55
2023-04-26T00:09:57.278Z,85.46
2023-04-26T00:10:57.319Z,85.11
2023-04-26T00:11:58.014Z,84.91
2023-04-26T00:12:58.920Z,85.01
2023-04-26T00:13:57.250Z,84.91
2023-04-26T00:14:57.256Z,85.01
2023-04-26T00:15:57.962Z,84.81
2023-04-26T00:16:58.308Z,84.61
2023-04-26T00:17:57.265Z,84.11
2023-04-26T00:19:07.124Z,84.21
2023-04-26T00:19:57.907Z,84.41
2023-04-26T00:20:57.181Z,84.51
2023-04-26T00:21:57.168Z,84.61
2023-04-26T00:22:57.916Z,84.81
2023-04-26T00:23:57.127Z,84.81
2023-04-26T00:24:57.156Z,84.71
2023-04-26T00:26:04.474Z,84.71
2023-04-26T00:26:57.952Z,84.81
2023-04-26T00:27:57.122Z,84.71
2023-04-26T00:28:57.114Z,84.81
2023-04-26T00:29:57.798Z,85.01
2023-04-26T00:31:01.040Z,85.21
2023-04-26T00:31:57.722Z,85.05
2023-04-26T00:32:57.988Z,85.25
2023-04-26T00:33:57.075Z,85.46
2023-04-26T00:34:57.067Z,85.66
2023-04-26T00:35:57.002Z,85.75
2023-04-26T00:36:57.924Z,85.96
2023-04-26T00:37:59.025Z,86.05
2023-04-26T00:38:57.932Z,85.75
2023-04-26T00:40:02.584Z,85.66
2023-04-26T00:40:58.695Z,85.55
2023-04-26T00:41:56.951Z,85.55
2023-04-26T00:42:57.649Z,85.66
2023-04-26T00:43:56.895Z,85.55
2023-04-26T00:44:57.713Z,85.55
2023-04-26T00:45:56.899Z,85.55
2023-04-26T00:46:57.447Z,85.85
2023-04-26T00:48:00.184Z,85.96
2023-04-26T00:49:01.197Z,86.05
2023-04-26T00:49:58.829Z,85.96
2023-04-26T00:50:56.853Z,85.75
2023-04-26T00:51:56.836Z,85.66
2023-04-26T00:52:58.703Z,85.21
2023-04-26T00:53:57.470Z,85.25
2023-04-26T00:54:56.838Z,85.35
2023-04-26T00:55:56.821Z,85.25
2023-04-26T00:56:56.784Z,85.25
2023-04-26T00:57:56.731Z,85.46
2023-04-26T00:58:59.270Z,85.66
2023-04-26T00:59:56.728Z,85.66
2023-04-26T01:00:56.772Z,85.75
2023-04-26T01:01:56.770Z,85.96
2023-04-26T01:02:57.723Z,86.05
2023-04-26T01:03:57.597Z,85.85
2023-04-26T01:04:57.412Z,85.85
2023-04-26T01:05:56.664Z,85.66
2023-04-26T01:06:56.706Z,85.55
2023-04-26T01:07:56.662Z,85.46
2023-04-26T01:08:58.871Z,85.35
2023-04-26T01:09:56.622Z,85.55
2023-04-26T01:10:56.624Z,85.66
2023-04-26T01:11:56.638Z,85.55
2023-04-26T01:12:59.283Z,85.55
2023-04-26T01:13:56.615Z,85.66
2023-04-26T01:14:56.576Z,85.85
2023-04-26T01:16:00.633Z,85.75
2023-04-26T01:16:57.250Z,85.75
2023-04-26T01:17:56.627Z,85.55
2023-04-26T01:18:56.527Z,85.41
2023-04-26T01:19:56.523Z,85.11
2023-04-26T01:20:57.429Z,85.21
2023-04-26T01:21:56.522Z,85.51
2023-04-26T01:22:56.473Z,85.91
2023-04-26T01:23:56.482Z,85.57
2023-04-26T01:24:58.312Z,84.41
2023-04-26T01:25:57.337Z,84.91
2023-04-26T01:26:56.422Z,85.46
2023-04-26T01:27:56.436Z,85.35
2023-04-26T01:28:57.039Z,85.85
2023-04-26T01:29:56.404Z,85.96
2023-04-26T01:30:56.968Z,86.30
2023-04-26T01:31:56.384Z,86.94
2023-04-26T01:32:56.411Z,87.94
2023-04-26T01:33:57.075Z,88.34
2023-04-26T01:34:58.327Z,88.14
2023-04-26T01:35:57.474Z,88.04
2023-04-26T01:38:34.725Z,88.60
2023-04-26T01:39:39.456Z,87.40
2023-04-26T01:40:35.653Z,87.00
2023-04-26T01:41:35.645Z,87.26
2023-04-26T01:42:35.644Z,86.96
2023-04-26T01:43:37.405Z,86.35
2023-04-26T01:44:36.411Z,85.96
2023-04-26T01:45:36.217Z,85.55
2023-04-26T01:46:35.597Z,85.75
2023-04-26T01:47:35.632Z,85.96
2023-04-26T01:48:35.555Z,85.96
2023-04-26T01:49:35.581Z,85.96
2023-04-26T01:50:35.629Z,85.96
2023-04-26T01:51:36.279Z,85.96
2023-04-26T01:52:36.245Z,85.96
2023-04-26T01:53:35.529Z,85.55
2023-04-26T01:54:35.469Z,86.16
2023-04-26T01:55:35.514Z,86.16
2023-04-26T01:56:35.454Z,86.16
2023-04-26T01:57:35.467Z,86.60
2023-04-26T01:58:35.448Z,87.44
2023-04-26T01:59:35.443Z,87.74
2023-04-26T02:00:35.408Z,87.74
2023-04-26T02:01:35.512Z,87.84
2023-04-26T02:02:35.492Z,87.84
2023-04-26T02:03:35.454Z,87.74
2023-04-26T02:04:36.038Z,87.70
2023-04-26T02:05:35.433Z,87.60
2023-04-26T02:06:36.081Z,87.30
2023-04-26T02:07:35.373Z,87.10
2023-04-26T02:08:36.056Z,86.96
2023-04-26T02:09:35.334Z,86.66
2023-04-26T02:10:36.144Z,86.25
2023-04-26T02:11:35.321Z,86.16
2023-04-26T02:12:36.010Z,86.19
2023-04-26T02:13:35.329Z,86.69
2023-04-26T02:14:36.074Z,86.90
2023-04-26T02:15:35.282Z,87.00
2023-04-26T02:16:35.363Z,87.00
2023-04-26T02:17:35.313Z,87.20
2023-04-26T02:18:35.220Z,87.30
2023-04-26T02:19:37.054Z,87.30
2023-04-26T02:20:35.774Z,87.40
2023-04-26T02:21:35.205Z,87.40
2023-04-26T02:22:35.154Z,87.40
2023-04-26T02:23:35.182Z,87.30
2023-04-26T02:24:35.139Z,87.30
2023-04-26T02:25:35.169Z,87.30
2023-04-26T02:26:35.714Z,87.00
2023-04-26T02:27:35.139Z,86.90
2023-04-26T02:28:35.130Z,86.66
2023-04-26T02:29:43.024Z,86.55
2023-04-26T02:30:35.098Z,86.16
2023-04-26T02:31:35.583Z,85.85
2023-04-26T02:32:35.095Z,85.75
2023-04-26T02:33:36.096Z,85.75
2023-04-26T02:34:35.040Z,85.75
2023-04-26T02:35:35.126Z,85.66
2023-04-26T02:36:35.026Z,85.51
2023-04-26T02:37:35.059Z,85.41
2023-04-26T02:38:35.654Z,85.46
2023-04-26T02:39:35.858Z,85.55
2023-04-26T02:40:34.965Z,85.55
2023-04-26T02:41:35.014Z,85.75
2023-04-26T02:42:34.977Z,85.55
2023-04-26T02:43:34.987Z,85.66
2023-04-26T02:44:35.538Z,85.75
2023-04-26T02:45:35.552Z,85.75
2023-04-26T02:46:34.948Z,85.75
2023-04-26T02:47:34.934Z,85.61
2023-04-26T02:48:34.916Z,85.21
2023-04-26T02:49:34.900Z,85.35
2023-04-26T02:50:34.848Z,85.66
2023-04-26T02:51:35.760Z,85.85
2023-04-26T02:52:34.836Z,86.05
2023-04-26T02:53:34.869Z,86.35
2023-04-26T02:54:34.860Z,86.25
2023-04-26T02:55:34.844Z,86.05
2023-04-26T02:56:34.804Z,85.85
2023-04-26T02:57:34.821Z,85.85
2023-04-26T02:58:34.759Z,85.96
2023-04-26T02:59:35.681Z,85.85
2023-04-26T03:00:36.788Z,85.85
2023-04-26T03:01:34.826Z,85.75
2023-04-26T03:02:36.415Z,85.66
2023-04-26T03:03:34.850Z,85.75
2023-04-26T03:04:34.717Z,85.66
2023-04-26T03:05:34.718Z,85.55
2023-04-26T03:06:36.681Z,85.55
2023-04-26T03:07:34.701Z,85.89
2023-04-26T03:08:34.654Z,86.19
2023-04-26T03:09:34.671Z,86.25
2023-04-26T03:10:34.656Z,86.05
2023-04-26T03:11:34.635Z,85.85
2023-04-26T03:12:34.642Z,86.16
2023-04-26T03:13:34.627Z,86.19
2023-04-26T03:14:34.595Z,86.30
2023-04-26T03:15:34.609Z,86.25
2023-04-26T03:16:34.655Z,86.19
2023-04-26T03:17:35.610Z,86.16
2023-04-26T03:18:34.570Z,86.05
2023-04-26T03:19:34.598Z,85.85
2023-04-26T03:20:34.513Z,85.75
2023-04-26T03:21:34.532Z,85.85
2023-04-26T03:22:34.510Z,86.10
2023-04-26T03:23:34.525Z,86.30
2023-04-26T03:24:35.304Z,86.30
2023-04-26T03:25:34.495Z,86.16
2023-04-26T03:26:35.094Z,85.96
2023-04-26T03:27:34.483Z,85.85
2023-04-26T03:28:34.447Z,85.66
2023-04-26T03:29:34.441Z,85.46
2023-04-26T03:30:34.428Z,85.55
2023-04-26T03:31:35.459Z,85.66
2023-04-26T03:32:34.437Z,85.66
2023-04-26T03:33:34.426Z,85.55
2023-04-26T03:34:34.388Z,85.69
2023-04-26T03:35:34.399Z,85.80
2023-04-26T03:36:35.783Z,85.75
2023-04-26T03:37:34.369Z,85.75
2023-04-26T03:38:34.355Z,85.55
2023-04-26T03:39:34.335Z,85.46
2023-04-26T03:40:35.033Z,85.35
2023-04-26T03:41:35.076Z,85.35
2023-04-26T03:42:34.283Z,85.35
2023-04-26T03:43:34.296Z,85.25
2023-04-26T03:44:34.267Z,85.15
2023-04-26T03:45:34.992Z,85.01
2023-04-26T03:46:35.629Z,84.61
2023-04-26T03:47:34.273Z,84.51
2023-04-26T03:48:34.234Z,84.41
2023-04-26T03:49:34.230Z,84.41
2023-04-26T03:50:35.780Z,84.31
2023-04-26T03:51:34.222Z,84.45
2023-04-26T03:52:34.197Z,84.65
2023-04-26T03:53:34.943Z,84.15
2023-04-26T03:54:34.169Z,84.35
2023-04-26T03:55:34.171Z,84.75
2023-04-26T03:56:34.140Z,84.95
2023-04-26T03:57:34.148Z,84.95
2023-04-26T03:58:34.103Z,84.99
2023-04-26T03:59:34.095Z,85.30
2023-04-26T04:00:35.562Z,85.83
2023-04-26T04:01:34.077Z,86.04
2023-04-26T04:02:34.206Z,86.38
2023-04-26T04:03:34.209Z,86.98
2023-04-26T04:04:44.334Z,87.28
2023-04-26T04:05:34.164Z,87.28
2023-04-26T04:06:34.069Z,87.04
2023-04-26T04:07:34.682Z,86.64
2023-04-26T04:08:34.011Z,86.68
2023-04-26T04:09:33.982Z,86.98
2023-04-26T04:10:33.987Z,87.28
2023-04-26T04:11:33.968Z,87.58
2023-04-26T04:12:33.993Z,87.38
2023-04-26T04:13:33.937Z,87.24
2023-04-26T04:14:33.933Z,87.14
2023-04-26T04:15:34.020Z,87.04
2023-04-26T04:16:34.609Z,86.84
2023-04-26T04:17:35.082Z,86.60
2023-04-26T04:18:34.554Z,86.50
2023-04-26T04:19:33.861Z,86.40
2023-04-26T04:20:33.899Z,86.10
2023-04-26T04:21:33.864Z,85.99
2023-04-26T04:22:34.525Z,85.85
2023-04-26T04:23:34.478Z,85.75
2023-04-26T04:24:34.500Z,85.55
2023-04-26T04:25:33.808Z,85.46
2023-04-26T04:26:33.811Z,85.55
2023-04-26T04:27:33.777Z,85.75
2023-04-26T04:28:33.822Z,85.66
2023-04-26T04:29:33.972Z,85.55
2023-04-26T04:30:34.614Z,85.55
2023-04-26T04:31:33.760Z,85.55
2023-04-26T04:32:34.356Z,85.66
2023-04-26T04:33:33.721Z,85.69
2023-04-26T04:34:33.719Z,85.69
2023-04-26T04:35:33.799Z,85.89
2023-04-26T04:36:34.596Z,85.99
2023-04-26T04:37:33.667Z,85.89
2023-04-26T04:38:34.357Z,85.55
2023-04-26T04:39:33.634Z,85.15
2023-04-26T04:40:33.658Z,84.95
2023-04-26T04:41:34.260Z,84.65
2023-04-26T04:42:33.637Z,84.45
2023-04-26T04:43:33.576Z,84.35
2023-04-26T04:44:33.622Z,84.45
2023-04-26T04:45:34.377Z,84.45
2023-04-26T04:46:34.379Z,84.35
2023-04-26T04:47:33.635Z,84.25
2023-04-26T04:48:34.118Z,83.95
2023-04-26T04:49:34.946Z,84.05
2023-04-26T04:50:33.561Z,84.01
2023-04-26T04:51:33.493Z,83.71
2023-04-26T04:52:33.514Z,83.85
2023-04-26T04:53:33.516Z,84.39
2023-04-26T04:54:33.508Z,84.89
2023-04-26T04:55:33.496Z,85.30
2023-04-26T04:56:33.474Z,85.63
2023-04-26T04:57:34.074Z,86.04
2023-04-26T04:58:33.508Z,86.33
2023-04-26T06:05:31.735Z,87.42
2023-04-26T06:06:32.665Z,87.42
2023-04-26T06:07:32.643Z,87.32
2023-04-26T06:08:32.654Z,87.22
2023-04-26T06:09:33.249Z,87.12
2023-04-26T06:10:32.633Z,87.22
2023-04-26T06:11:32.582Z,87.32
2023-04-26T06:12:32.600Z,87.42
2023-04-26T06:13:32.563Z,87.52
2023-04-26T06:14:32.558Z,87.62
2023-04-26T06:15:32.561Z,87.52
2023-04-26T06:16:33.331Z,87.52
2023-04-26T06:17:32.560Z,87.62
2023-04-26T06:18:33.280Z,87.73
2023-04-26T06:19:32.491Z,87.73
2023-04-26T06:20:32.526Z,87.73
2023-04-26T06:21:32.506Z,87.62
2023-04-26T06:22:36.342Z,87.42
2023-04-26T06:23:32.454Z,87.42
2023-04-26T06:24:32.461Z,87.52
2023-04-26T06:25:32.431Z,87.52
2023-04-26T06:26:32.418Z,87.52
2023-04-26T06:27:32.398Z,87.62
2023-04-26T06:28:32.438Z,87.52
2023-04-26T06:29:32.925Z,87.52
2023-04-26T06:30:32.414Z,87.73
2023-04-26T06:31:32.475Z,87.82
2023-04-26T06:32:32.398Z,87.96
2023-04-26T06:33:32.327Z,88.07
2023-04-26T06:34:32.388Z,88.17
2023-04-26T06:35:32.970Z,88.17
2023-04-26T06:36:32.353Z,88.17
2023-04-26T06:37:32.315Z,88.27
2023-04-26T06:38:33.882Z,88.27
2023-04-26T06:39:32.264Z,88.37
2023-04-26T06:40:32.303Z,88.57
2023-04-26T06:41:32.241Z,88.47
2023-04-26T06:42:32.287Z,88.57
2023-04-26T06:43:32.241Z,88.67
2023-04-26T06:44:32.957Z,88.57
2023-04-26T06:45:32.387Z,88.67
2023-04-26T06:46:33.517Z,88.67
2023-04-26T06:47:32.185Z,88.77
2023-04-26T06:48:32.192Z,88.77
2023-04-26T06:49:32.194Z,88.67
2023-04-26T06:50:32.181Z,88.77
2023-04-26T06:51:32.391Z,88.67
2023-04-26T06:52:34.010Z,88.67
2023-04-26T06:53:32.115Z,88.67
2023-04-26T06:54:33.433Z,88.67
2023-04-26T06:55:33.601Z,88.77
2023-04-26T06:56:32.239Z,88.77
2023-04-26T06:57:32.799Z,88.67
2023-04-26T06:58:34.309Z,88.77
2023-04-26T06:59:32.051Z,88.77
2023-04-26T07:00:32.834Z,88.77
2023-04-26T07:01:32.805Z,88.77
2023-04-26T07:02:32.182Z,88.77
2023-04-26T07:03:32.132Z,88.77
2023-04-26T07:04:32.238Z,88.77
2023-04-26T07:05:31.981Z,88.87
2023-04-26T07:06:32.137Z,88.97
2023-04-26T07:07:31.969Z,88.87
2023-04-26T07:08:31.981Z,88.87
2023-04-26T07:09:31.935Z,88.77
2023-04-26T07:10:34.506Z,88.67
2023-04-26T07:11:32.192Z,88.67
2023-04-26T07:12:31.924Z,88.67
2023-04-26T07:13:31.918Z,88.67
2023-04-26T07:14:31.924Z,88.77
2023-04-26T07:15:31.873Z,88.87
2023-04-26T07:16:31.977Z,88.87
2023-04-26T07:17:31.855Z,88.97
2023-04-26T07:18:31.857Z,88.87
2023-04-26T07:19:31.826Z,88.87
2023-04-26T07:20:32.016Z,89.07
2023-04-26T07:21:31.799Z,88.87
2023-04-26T07:22:31.909Z,88.97
2023-04-26T07:23:31.788Z,89.07
2023-04-26T07:24:32.310Z,88.87
2023-04-26T07:25:31.762Z,88.87
2023-04-26T07:26:31.781Z,88.87
2023-04-26T07:27:31.716Z,88.87
2023-04-26T07:28:31.749Z,88.97
2023-04-26T07:29:31.733Z,88.97
2023-04-26T07:30:31.712Z,89.07
2023-04-26T07:31:31.682Z,89.07
2023-04-26T07:32:31.741Z,88.87
2023-04-26T07:33:31.877Z,88.77
2023-04-26T07:34:32.314Z,88.67
2023-04-26T07:35:32.493Z,88.77
2023-04-26T07:36:31.668Z,88.77
2023-04-26T07:37:33.135Z,88.87
2023-04-26T07:38:31.632Z,88.87
2023-04-26T07:39:31.628Z,88.97
2023-04-26T07:40:31.620Z,88.87
2023-04-26T07:41:31.581Z,88.97
2023-04-26T07:42:33.448Z,89.07
2023-04-26T07:43:31.555Z,89.07
2023-04-26T07:44:31.573Z,89.11
2023-04-26T07:45:32.360Z,89.17
2023-04-26T07:46:31.550Z,89.07
2023-04-26T07:47:31.565Z,88.97
2023-04-26T07:48:32.465Z,88.67
2023-04-26T07:49:31.502Z,88.47
2023-04-26T07:50:32.319Z,88.47
2023-04-26T07:51:31.452Z,88.57
2023-04-26T07:52:31.730Z,88.67
2023-04-26T07:53:31.443Z,88.77
2023-04-26T07:54:31.439Z,88.97
2023-04-26T07:55:31.411Z,88.97
2023-04-26T07:56:31.479Z,88.77
2023-04-26T07:57:31.411Z,88.77
2023-04-26T07:58:31.419Z,88.77
2023-04-26T07:59:31.368Z,88.77
2023-04-26T08:00:31.388Z,88.77
2023-04-26T08:01:31.339Z,88.87
2023-04-26T08:02:43.603Z,88.97
2023-04-26T08:03:31.491Z,88.97
2023-04-26T08:04:31.470Z,89.07
2023-04-26T08:05:31.621Z,88.97
2023-04-26T08:06:31.306Z,89.01
2023-04-26T08:07:31.273Z,89.11
2023-04-26T08:08:31.271Z,89.22
2023-04-26T08:09:31.241Z,89.11
2023-04-26T08:10:31.309Z,89.07
2023-04-26T08:11:31.287Z,89.07
2023-04-26T08:12:31.274Z,89.07
2023-04-26T08:13:34.344Z,88.97
2023-04-26T08:14:31.218Z,89.22
2023-04-26T08:15:31.206Z,89.31
2023-04-26T08:16:33.807Z,89.31
2023-04-26T08:17:31.220Z,89.42
2023-04-26T08:18:31.176Z,89.42
2023-04-26T08:19:31.142Z,89.42
2023-04-26T08:20:31.155Z,89.42
2023-04-26T08:21:31.769Z,89.42
2023-04-26T08:22:31.808Z,89.42
2023-04-26T08:23:31.080Z,89.51
2023-04-26T08:24:31.110Z,89.42
2023-04-26T08:25:33.506Z,89.42
2023-04-26T08:26:31.799Z,89.42
2023-04-26T08:27:31.051Z,89.51
2023-04-26T08:28:31.838Z,89.51
2023-04-26T08:29:31.028Z,89.51
2023-04-26T08:30:31.053Z,89.51
2023-04-26T08:31:31.098Z,89.62
2023-04-26T08:32:33.033Z,89.62
2023-04-26T08:33:31.528Z,89.51
2023-04-26T08:34:31.020Z,89.42
2023-04-26T08:35:38.519Z,89.22
2023-04-26T08:36:40.036Z,88.97
2023-04-26T08:37:31.504Z,88.77
2023-04-26T08:38:31.872Z,88.77
2023-04-26T08:39:30.922Z,88.67
2023-04-26T08:40:30.942Z,88.47
2023-04-26T08:41:30.891Z,88.23
2023-04-26T08:42:31.575Z,88.02
2023-04-26T08:43:30.920Z,87.82
2023-04-26T08:44:31.914Z,87.52
2023-04-26T08:45:30.859Z,87.32
2023-04-26T08:46:31.383Z,87.22
2023-04-26T08:47:30.838Z,87.32
2023-04-26T08:48:30.852Z,87.62
2023-04-26T08:49:30.793Z,87.87
2023-04-26T08:50:30.815Z,88.07
2023-04-26T08:51:30.768Z,88.17
2023-04-26T08:52:33.060Z,88.27
2023-04-26T08:53:30.770Z,88.27
2023-04-26T08:54:30.764Z,88.37
2023-04-26T08:55:30.771Z,88.47
2023-04-26T08:56:30.753Z,88.47
2023-04-26T08:57:30.733Z,88.67
2023-04-26T08:58:30.921Z,88.57
2023-04-26T08:59:30.701Z,88.57
2023-04-26T09:00:30.682Z,88.67
2023-04-26T09:01:30.684Z,88.57
2023-04-26T09:02:30.857Z,88.57
2023-04-26T09:03:31.568Z,88.57
2023-04-26T09:04:31.143Z,88.57
2023-04-26T09:05:31.338Z,88.47
2023-04-26T09:06:30.644Z,88.37
2023-04-26T09:07:30.591Z,87.93
2023-04-26T09:08:30.601Z,87.62
2023-04-26T09:09:31.347Z,87.18
2023-04-26T09:10:30.641Z,86.88
2023-04-26T09:11:30.562Z,86.58
2023-04-26T09:12:30.585Z,86.18
2023-04-26T09:13:30.525Z,86.04
2023-04-26T09:14:30.544Z,85.74
2023-04-26T09:15:30.502Z,85.74
2023-04-26T09:16:30.562Z,85.63
2023-04-26T09:17:30.515Z,85.44
2023-04-26T09:18:30.625Z,85.03
2023-04-26T09:19:30.453Z,85.03
2023-04-26T09:20:30.513Z,85.38
2023-04-26T09:21:33.083Z,85.88
2023-04-26T09:22:30.488Z,86.28
2023-04-26T09:23:30.411Z,86.52
2023-04-26T09:24:31.147Z,86.72
2023-04-26T09:25:30.430Z,86.92
2023-04-26T09:26:30.368Z,86.92
2023-04-26T09:27:31.075Z,86.92
2023-04-26T09:28:31.835Z,86.92
2023-04-26T09:29:30.383Z,87.02
2023-04-26T09:30:30.343Z,87.22
2023-04-26T09:31:30.405Z,87.32
2023-04-26T09:32:30.836Z,87.52
2023-04-26T09:33:30.330Z,87.62
2023-04-26T09:34:30.328Z,87.73
2023-04-26T09:35:30.305Z,87.82
2023-04-26T09:36:30.846Z,87.82
2023-04-26T09:37:30.897Z,87.87
2023-04-26T09:38:30.226Z,87.96
2023-04-26T09:39:30.294Z,88.07
2023-04-26T09:40:30.854Z,88.17
2023-04-26T09:41:30.219Z,88.12
2023-04-26T09:42:30.182Z,88.02
2023-04-26T09:43:30.232Z,87.82
2023-04-26T09:44:30.169Z,87.52
2023-04-26T09:45:30.189Z,87.18
2023-04-26T09:46:30.199Z,86.88
2023-04-26T09:47:30.209Z,86.48
2023-04-26T09:48:30.245Z,86.24
2023-04-26T09:49:30.148Z,86.04
2023-04-26T09:50:30.113Z,85.83
2023-04-26T09:51:30.817Z,85.53
2023-04-26T09:52:30.123Z,85.53
2023-04-26T09:53:30.108Z,85.39
2023-04-26T09:54:30.061Z,85.33
2023-04-26T09:56:29.026Z,85.44
2023-04-26T09:57:30.054Z,85.63
2023-04-26T09:58:30.871Z,85.88
2023-04-26T09:59:30.027Z,86.18
2023-04-26T10:00:30.019Z,86.38
2023-04-26T10:01:30.577Z,86.82
2023-04-26T10:02:30.181Z,87.02
2023-04-26T10:03:30.810Z,87.12
2023-04-26T10:04:30.394Z,87.22
2023-04-26T10:05:31.674Z,87.52
2023-04-26T10:06:30.929Z,87.62
2023-04-26T10:07:29.933Z,87.73
2023-04-26T10:08:29.891Z,87.82
2023-04-26T10:09:29.921Z,87.93
2023-04-26T10:10:30.846Z,88.02
2023-04-26T10:11:29.893Z,87.93
2023-04-26T10:12:29.867Z,88.07
2023-04-26T10:13:29.866Z,88.17
2023-04-26T10:14:30.519Z,88.17
2023-04-26T10:15:30.377Z,88.27
2023-04-26T10:16:30.389Z,88.37
2023-04-26T10:17:29.902Z,88.17
2023-04-26T10:18:29.809Z,88.17
2023-04-26T10:19:30.529Z,88.27
2023-04-26T10:20:29.769Z,88.27
2023-04-26T10:21:29.774Z,88.37
2023-04-26T10:22:29.818Z,88.27
2023-04-26T10:23:32.182Z,88.12
2023-04-26T10:24:30.371Z,87.93
2023-04-26T10:25:29.759Z,87.82
2023-04-26T10:26:29.697Z,87.82
2023-04-26T10:27:29.725Z,87.62
2023-04-26T10:28:29.717Z,87.52
2023-04-26T10:29:29.749Z,87.52
2023-04-26T10:30:32.494Z,87.52
2023-04-26T10:31:29.698Z,87.52
2023-04-26T10:32:29.647Z,87.42
2023-04-26T10:33:29.656Z,87.42
2023-04-26T10:34:30.170Z,87.18
2023-04-26T10:35:29.628Z,86.78
2023-04-26T10:36:29.580Z,86.58
2023-04-26T10:37:29.601Z,86.48
2023-04-26T10:38:29.571Z,86.48
2023-04-26T10:39:29.596Z,86.48
2023-04-26T10:40:29.564Z,86.48
2023-04-26T10:41:29.570Z,86.24
2023-04-26T10:42:31.778Z,85.83
2023-04-26T10:43:29.536Z,85.83
2023-04-26T10:44:29.511Z,85.53
2023-04-26T10:45:29.555Z,85.19
2023-04-26T10:46:29.524Z,84.99
2023-04-26T10:47:29.579Z,84.69
2023-04-26T10:48:29.501Z,84.29
2023-04-26T10:49:29.492Z,84.49
2023-04-26T10:50:29.447Z,84.59
2023-04-26T10:51:31.392Z,84.49
2023-04-26T10:52:29.404Z,84.09
2023-04-26T10:53:30.411Z,83.95
2023-04-26T10:54:29.380Z,83.65
2023-04-26T10:55:29.405Z,82.81
2023-04-26T10:56:29.387Z,82.41
2023-04-26T10:57:29.413Z,82.51
2023-04-26T10:58:29.335Z,82.81
2023-04-26T10:59:43.462Z,82.71
2023-04-26T11:00:31.968Z,82.41
2023-04-26T11:01:29.367Z,81.87
2023-04-26T11:02:29.329Z,81.61
2023-04-26T11:03:29.652Z,82.31
2023-04-26T11:04:29.542Z,82.85
2023-04-26T11:05:30.100Z,83.05
2023-04-26T11:06:29.255Z,83.15
2023-04-26T11:07:29.941Z,83.15
2023-04-26T11:08:29.230Z,82.85
2023-04-26T11:09:29.279Z,82.71
2023-04-26T11:10:29.939Z,82.61
2023-04-26T11:11:29.218Z,82.31
2023-04-26T11:12:29.877Z,82.01
2023-04-26T11:13:29.911Z,81.91
2023-04-26T11:14:30.571Z,81.47
2023-04-26T11:15:29.221Z,81.61
2023-04-26T11:16:29.892Z,81.91
2023-04-26T11:17:29.161Z,81.91
2023-04-26T11:18:29.888Z,82.01
2023-04-26T11:19:29.137Z,81.81
2023-04-26T11:20:29.100Z,81.61
2023-04-26T11:21:29.356Z,81.41
2023-04-26T11:22:29.070Z,81.51
2023-04-26T11:23:32.076Z,81.21
2023-04-26T11:24:29.087Z,81.37
2023-04-26T11:25:29.090Z,81.17
2023-04-26T11:26:29.011Z,81.17
2023-04-26T11:27:29.054Z,80.83
2023-04-26T11:28:31.140Z,80.29
2023-04-26T11:29:29.648Z,79.79
2023-04-26T11:30:29.000Z,78.75
2023-04-26T11:31:33.327Z,78.75
2023-04-26T11:32:29.628Z,78.45
2023-04-26T11:33:29.057Z,78.19
2023-04-26T11:34:28.932Z,78.89
2023-04-26T11:35:30.037Z,79.29
2023-04-26T11:36:28.913Z,79.19
2023-04-26T11:37:29.616Z,79.39
2023-04-26T11:38:30.969Z,79.39
2023-04-26T11:39:28.939Z,78.89
2023-04-26T11:40:28.867Z,78.69
2023-04-26T11:41:28.882Z,78.45
2023-04-26T11:42:30.445Z,78.36
2023-04-26T11:43:31.236Z,78.49
2023-04-26T11:44:28.862Z,78.69
2023-04-26T11:45:28.873Z,78.89
2023-04-26T11:46:30.546Z,78.89
2023-04-26T11:47:28.839Z,79.19
2023-04-26T11:48:28.783Z,79.19
2023-04-26T11:49:28.793Z,78.99
2023-04-26T11:50:34.247Z,78.55
2023-04-26T11:51:29.544Z,78.45
2023-04-26T11:52:39.734Z,78.36
2023-04-26T11:53:29.479Z,78.36
2023-04-26T11:54:28.707Z,78.45
2023-04-26T11:55:28.744Z,78.25
2023-04-26T11:56:28.705Z,78.05
2023-04-26T11:57:29.693Z,77.62
2023-04-26T11:58:28.687Z,77.32
2023-04-26T11:59:28.680Z,77.12
2023-04-26T12:00:28.642Z,77.02
2023-04-26T12:01:28.701Z,77.02
2023-04-26T12:02:30.617Z,77.12
2023-04-26T12:03:29.149Z,76.58
2023-04-26T12:04:30.190Z,76.28
2023-04-26T12:05:29.573Z,76.48
2023-04-26T12:06:28.580Z,76.12
2023-04-26T12:07:28.626Z,76.22
2023-04-26T12:08:30.127Z,76.42
2023-04-26T12:09:28.579Z,76.28
2023-04-26T12:10:29.423Z,76.38
2023-04-26T12:11:28.612Z,76.38
2023-04-26T12:12:29.259Z,75.89
2023-04-26T12:13:29.983Z,76.42
2023-04-26T12:14:28.564Z,76.52
2023-04-26T12:15:28.508Z,76.86
2023-04-26T12:16:28.560Z,77.06
2023-04-26T12:17:31.533Z,77.06
2023-04-26T12:18:28.459Z,77.02
2023-04-26T12:19:28.472Z,76.92
2023-04-26T12:20:32.690Z,76.62
2023-04-26T12:21:30.620Z,76.62
2023-04-26T12:22:28.405Z,76.22
2023-04-26T12:23:29.080Z,76.52
2023-04-26T12:24:28.440Z,76.82
2023-04-26T12:25:28.401Z,76.58
2023-04-26T12:26:28.404Z,76.18
2023-04-26T12:27:28.922Z,75.68
2023-04-26T12:28:28.324Z,75.18
2023-04-26T12:29:28.358Z,75.59
2023-04-26T12:30:28.328Z,75.48
2023-04-26T12:31:28.386Z,75.18
2023-04-26T12:32:29.003Z,75.28
2023-04-26T12:33:28.377Z,75.05
2023-04-26T12:34:28.327Z,75.05
2023-04-26T12:35:28.280Z,74.95
2023-04-26T12:36:28.255Z,74.85
2023-04-26T14:50:22.872Z,70.42
2023-04-26T14:51:22.808Z,70.95
2023-04-26T14:52:22.751Z,71.15
2023-04-26T14:53:24.970Z,71.15
2023-04-26T14:54:23.364Z,70.85
2023-04-26T14:55:22.805Z,71.35
2023-04-26T14:56:23.545Z,71.48
2023-04-26T14:57:22.761Z,71.78
2023-04-26T14:58:22.911Z,71.69
2023-04-26T14:59:23.606Z,71.69
2023-04-26T15:00:24.401Z,71.39
2023-04-26T15:01:24.456Z,71.48
2023-04-26T15:02:22.711Z,71.55
2023-04-26T15:03:23.522Z,71.75
2023-04-26T15:04:22.820Z,70.89
2023-04-26T15:05:27.509Z,71.28
2023-04-26T15:06:24.952Z,71.69
2023-04-26T15:07:31.935Z,71.69
2023-04-26T15:08:26.476Z,71.48
2023-04-26T15:09:22.611Z,71.78
2023-04-26T15:10:22.543Z,71.98
2023-04-26T15:11:23.257Z,71.98
2023-04-26T15:12:23.205Z,71.78
2023-04-26T15:13:23.195Z,72.08
2023-04-26T15:14:23.412Z,71.98
2023-04-26T15:15:22.607Z,71.98
2023-04-26T15:16:25.143Z,71.88
2023-04-26T15:17:22.501Z,72.02
2023-04-26T15:18:22.578Z,72.11
2023-04-26T15:19:22.466Z,72.31
2023-04-26T15:20:24.735Z,72.52
2023-04-26T15:21:23.523Z,72.61
2023-04-26T15:22:22.426Z,72.71
2023-04-26T15:23:22.452Z,72.71
2023-04-26T15:24:22.854Z,72.61
2023-04-26T15:25:22.398Z,72.71
2023-04-26T15:26:22.366Z,72.91
2023-04-26T15:27:22.371Z,72.91
2023-04-26T15:28:22.394Z,73.21
2023-04-26T15:29:22.405Z,73.41
2023-04-26T15:30:25.967Z,73.71
2023-04-26T15:31:22.370Z,73.81
2023-04-26T15:32:23.630Z,73.61
2023-04-26T15:33:23.045Z,73.61
2023-04-26T15:34:22.316Z,73.81
2023-04-26T15:35:25.513Z,74.34
2023-04-26T15:36:22.244Z,74.54
2023-04-26T15:37:22.275Z,74.64
2023-04-26T15:38:22.226Z,74.94
2023-04-26T15:39:23.593Z,75.14
2023-04-26T15:40:22.391Z,75.34
2023-04-26T15:41:22.214Z,75.64
2023-04-26T15:42:22.186Z,75.14
2023-04-26T15:43:22.225Z,75.57
2023-04-26T15:44:22.166Z,75.87
2023-04-26T15:45:22.203Z,76.77
2023-04-26T15:46:22.156Z,76.17
2023-04-26T15:47:22.196Z,76.27
2023-04-26T15:48:22.119Z,76.57
2023-04-26T15:49:22.105Z,76.37
2023-04-26T15:50:22.089Z,76.47
2023-04-26T15:51:22.117Z,77.47
2023-04-26T15:52:22.078Z,76.67
2023-04-26T15:53:22.385Z,76.91
2023-04-26T15:54:22.073Z,77.51
2023-04-26T15:55:31.814Z,77.47
2023-04-26T15:56:22.702Z,77.37
2023-04-26T15:57:23.457Z,77.87
2023-04-26T15:58:22.882Z,77.97
2023-04-26T15:59:22.392Z,77.27
2023-04-26T16:00:22.904Z,77.27
2023-04-26T16:01:25.828Z,77.70
2023-04-26T16:02:22.009Z,78.56
2023-04-26T16:03:24.272Z,78.97
2023-04-26T16:04:22.227Z,77.40
2023-04-26T16:05:23.986Z,77.70
2023-04-26T16:06:21.919Z,78.00
2023-04-26T16:07:22.796Z,78.00
2023-04-26T16:08:38.760Z,78.80
2023-04-26T16:09:25.371Z,79.00
2023-04-26T16:10:21.865Z,79.00
2023-04-26T16:11:21.907Z,78.60
2023-04-26T16:12:21.875Z,79.60
2023-04-26T16:13:21.846Z,78.41
2023-04-26T16:14:21.853Z,78.70
2023-04-26T16:15:23.861Z,78.64
2023-04-26T16:16:22.006Z,78.24
2023-04-26T16:17:21.792Z,78.80
2023-04-26T16:18:21.831Z,78.41
2023-04-26T16:19:23.511Z,77.40
2023-04-26T16:20:21.780Z,77.51